Sandvig, Denmark
Current Conditions -  °F | °C
As of 8:50 AM on Saturday 25 Oct 2014 (Local Time) from EKRN Reporting Station
Broken Clouds Broken Clouds  
Wind Chill: 41°   Ceiling: 12000
Heat Index: 48°   Visibility: 5mi
Dew Point: 43°   Wind: 23mph
Humidity: 82%   Direction: 170°S
Pressure: 30.12"   Gusts: NA
Location:  55.28°N, 14.78°E
Report Text: EKRN 250650Z AUTO 17020KT 8000NDV SCT011/// BKN120///09/06 Q1020
Loading
Personal Weather Stations






























Interactive Weather Map
Tropical Storm Tracking
New forecast layout! Learn more

10-Day Weather Forecast

Advertisements
Track Severe Weather on mobile